sensor_id;sensor_type;location;lat;lon;timestamp;P1;durP1;ratioP1;P2;durP2;ratioP2
61477;SDS011;47345;52.334;10.392;2023-07-20T00:00:55;1.50;;;1.40;;
61477;SDS011;47345;52.334;10.392;2023-07-20T00:03:26;1.60;;;1.10;;
61477;SDS011;47345;52.334;10.392;2023-07-20T00:05:57;1.10;;;1.10;;
61477;SDS011;47345;52.334;10.392;2023-07-20T00:08:28;2.20;;;1.40;;
61477;SDS011;47345;52.334;10.392;2023-07-20T00:10:59;1.50;;;1.40;;
61477;SDS011;47345;52.334;10.392;2023-07-20T00:13:30;1.50;;;1.30;;
61477;SDS011;47345;52.334;10.392;2023-07-20T00:16:01;1.40;;;1.20;;
61477;SDS011;47345;52.334;10.392;2023-07-20T00:18:32;1.60;;;1.40;;
61477;SDS011;47345;52.334;10.392;2023-07-20T00:21:03;1.70;;;1.30;;
61477;SDS011;47345;52.334;10.392;2023-07-20T00:23:33;1.30;;;1.20;;
61477;SDS011;47345;52.334;10.392;2023-07-20T00:26:04;2.60;;;1.20;;
61477;SDS011;47345;52.334;10.392;2023-07-20T00:28:35;1.40;;;1.30;;
61477;SDS011;47345;52.334;10.392;2023-07-20T00:31:06;1.30;;;1.20;;
61477;SDS011;47345;52.334;10.392;2023-07-20T00:33:37;1.30;;;1.20;;
61477;SDS011;47345;52.334;10.392;2023-07-20T00:36:08;1.50;;;1.40;;
61477;SDS011;47345;52.334;10.392;2023-07-20T00:38:39;1.20;;;1.20;;
61477;SDS011;47345;52.334;10.392;2023-07-20T00:41:11;1.20;;;1.20;;
61477;SDS011;47345;52.334;10.392;2023-07-20T00:43:42;3.50;;;1.30;;
61477;SDS011;47345;52.334;10.392;2023-07-20T00:46:13;1.70;;;1.40;;
61477;SDS011;47345;52.334;10.392;2023-07-20T00:48:43;1.20;;;1.20;;
61477;SDS011;47345;52.334;10.392;2023-07-20T00:51:14;1.30;;;1.20;;
61477;SDS011;47345;52.334;10.392;2023-07-20T00:53:46;2.80;;;1.30;;
61477;SDS011;47345;52.334;10.392;2023-07-20T00:56:17;1.50;;;1.40;;
61477;SDS011;47345;52.334;10.392;2023-07-20T00:58:48;1.50;;;1.30;;
61477;SDS011;47345;52.334;10.392;2023-07-20T01:01:20;1.20;;;1.10;;
61477;SDS011;47345;52.334;10.392;2023-07-20T01:03:50;3.30;;;1.20;;
61477;SDS011;47345;52.334;10.392;2023-07-20T01:06:24;1.50;;;1.40;;
61477;SDS011;47345;52.334;10.392;2023-07-20T01:09:02;1.20;;;1.10;;
61477;SDS011;47345;52.334;10.392;2023-07-20T01:11:43;1.50;;;1.40;;
61477;SDS011;47345;52.334;10.392;2023-07-20T01:14:18;3.00;;;1.40;;
61477;SDS011;47345;52.334;10.392;2023-07-20T01:16:49;1.90;;;1.30;;
61477;SDS011;47345;52.334;10.392;2023-07-20T01:19:20;1.50;;;1.40;;
61477;SDS011;47345;52.334;10.392;2023-07-20T01:21:53;1.60;;;1.50;;
61477;SDS011;47345;52.334;10.392;2023-07-20T01:24:44;1.40;;;1.40;;
61477;SDS011;47345;52.334;10.392;2023-07-20T01:27:40;2.60;;;1.60;;
61477;SDS011;47345;52.334;10.392;2023-07-20T01:30:52;2.10;;;1.40;;
61477;SDS011;47345;52.334;10.392;2023-07-20T01:33:28;3.80;;;1.50;;
61477;SDS011;47345;52.334;10.392;2023-07-20T01:36:02;2.60;;;1.60;;
61477;SDS011;47345;52.334;10.392;2023-07-20T01:38:34;1.60;;;1.50;;
61477;SDS011;47345;52.334;10.392;2023-07-20T01:41:05;1.40;;;1.30;;
61477;SDS011;47345;52.334;10.392;2023-07-20T01:43:37;6.10;;;1.50;;
61477;SDS011;47345;52.334;10.392;2023-07-20T01:46:07;2.20;;;1.40;;
61477;SDS011;47345;52.334;10.392;2023-07-20T01:48:38;2.30;;;1.50;;
61477;SDS011;47345;52.334;10.392;2023-07-20T01:51:09;2.20;;;1.70;;
61477;SDS011;47345;52.334;10.392;2023-07-20T01:53:40;1.70;;;1.40;;
61477;SDS011;47345;52.334;10.392;2023-07-20T01:56:11;1.70;;;1.30;;
61477;SDS011;47345;52.334;10.392;2023-07-20T01:58:42;1.70;;;1.60;;
61477;SDS011;47345;52.334;10.392;2023-07-20T02:01:13;1.50;;;1.40;;
61477;SDS011;47345;52.334;10.392;2023-07-20T02:03:44;1.30;;;1.20;;
61477;SDS011;47345;52.334;10.392;2023-07-20T02:06:15;1.40;;;1.30;;
61477;SDS011;47345;52.334;10.392;2023-07-20T02:08:46;1.40;;;1.30;;
61477;SDS011;47345;52.334;10.392;2023-07-20T02:11:17;1.70;;;1.30;;
61477;SDS011;47345;52.334;10.392;2023-07-20T02:13:47;1.50;;;1.30;;
61477;SDS011;47345;52.334;10.392;2023-07-20T02:16:18;1.30;;;1.20;;
61477;SDS011;47345;52.334;10.392;2023-07-20T02:18:49;1.40;;;1.30;;
61477;SDS011;47345;52.334;10.392;2023-07-20T02:21:21;3.90;;;1.20;;
61477;SDS011;47345;52.334;10.392;2023-07-20T02:23:52;2.10;;;1.60;;
61477;SDS011;47345;52.334;10.392;2023-07-20T02:26:23;1.50;;;1.40;;
61477;SDS011;47345;52.334;10.392;2023-07-20T02:28:54;1.20;;;1.20;;
61477;SDS011;47345;52.334;10.392;2023-07-20T02:31:25;1.20;;;1.20;;
61477;SDS011;47345;52.334;10.392;2023-07-20T02:33:56;1.40;;;1.30;;
61477;SDS011;47345;52.334;10.392;2023-07-20T02:36:26;1.30;;;1.20;;
61477;SDS011;47345;52.334;10.392;2023-07-20T02:38:58;1.60;;;1.40;;
61477;SDS011;47345;52.334;10.392;2023-07-20T02:41:30;1.60;;;1.50;;
61477;SDS011;47345;52.334;10.392;2023-07-20T02:44:02;2.40;;;1.50;;
61477;SDS011;47345;52.334;10.392;2023-07-20T02:46:32;1.50;;;1.40;;
61477;SDS011;47345;52.334;10.392;2023-07-20T02:49:03;1.60;;;1.50;;
61477;SDS011;47345;52.334;10.392;2023-07-20T02:51:34;1.60;;;1.50;;
61477;SDS011;47345;52.334;10.392;2023-07-20T02:54:04;1.50;;;1.40;;
61477;SDS011;47345;52.334;10.392;2023-07-20T02:56:36;1.40;;;1.30;;
61477;SDS011;47345;52.334;10.392;2023-07-20T02:59:07;1.60;;;1.50;;
61477;SDS011;47345;52.334;10.392;2023-07-20T03:01:37;3.00;;;1.40;;
61477;SDS011;47345;52.334;10.392;2023-07-20T03:04:10;1.30;;;1.20;;
61477;SDS011;47345;52.334;10.392;2023-07-20T03:06:40;1.60;;;1.50;;
61477;SDS011;47345;52.334;10.392;2023-07-20T03:09:12;1.20;;;1.20;;
61477;SDS011;47345;52.334;10.392;2023-07-20T03:11:43;1.40;;;1.30;;
61477;SDS011;47345;52.334;10.392;2023-07-20T03:14:14;3.40;;;1.60;;
61477;SDS011;47345;52.334;10.392;2023-07-20T03:16:44;1.50;;;1.40;;
61477;SDS011;47345;52.334;10.392;2023-07-20T03:19:16;1.70;;;1.60;;
61477;SDS011;47345;52.334;10.392;2023-07-20T03:21:47;1.70;;;1.50;;
61477;SDS011;47345;52.334;10.392;2023-07-20T03:24:18;2.70;;;1.50;;
61477;SDS011;47345;52.334;10.392;2023-07-20T03:26:51;1.50;;;1.40;;
61477;SDS011;47345;52.334;10.392;2023-07-20T03:29:22;2.00;;;1.70;;
61477;SDS011;47345;52.334;10.392;2023-07-20T03:31:53;1.60;;;1.50;;
61477;SDS011;47345;52.334;10.392;2023-07-20T03:34:24;1.60;;;1.40;;
61477;SDS011;47345;52.334;10.392;2023-07-20T03:36:55;1.50;;;1.40;;
61477;SDS011;47345;52.334;10.392;2023-07-20T03:39:27;1.50;;;1.40;;
61477;SDS011;47345;52.334;10.392;2023-07-20T03:41:58;1.70;;;1.50;;
61477;SDS011;47345;52.334;10.392;2023-07-20T03:44:29;2.60;;;1.60;;
61477;SDS011;47345;52.334;10.392;2023-07-20T03:46:59;1.60;;;1.50;;
61477;SDS011;47345;52.334;10.392;2023-07-20T03:49:31;1.50;;;1.30;;
61477;SDS011;47345;52.334;10.392;2023-07-20T03:52:02;4.40;;;1.50;;
61477;SDS011;47345;52.334;10.392;2023-07-20T03:54:34;1.20;;;1.10;;
61477;SDS011;47345;52.334;10.392;2023-07-20T03:57:05;1.40;;;1.30;;
61477;SDS011;47345;52.334;10.392;2023-07-20T03:59:38;1.70;;;1.50;;
61477;SDS011;47345;52.334;10.392;2023-07-20T04:02:13;1.60;;;1.50;;
61477;SDS011;47345;52.334;10.392;2023-07-20T04:04:44;1.50;;;1.40;;
61477;SDS011;47345;52.334;10.392;2023-07-20T04:07:15;6.40;;;1.60;;
61477;SDS011;47345;52.334;10.392;2023-07-20T04:09:46;2.30;;;1.40;;
61477;SDS011;47345;52.334;10.392;2023-07-20T04:12:16;1.60;;;1.40;;
61477;SDS011;47345;52.334;10.392;2023-07-20T04:14:47;1.40;;;1.30;;
61477;SDS011;47345;52.334;10.392;2023-07-20T04:17:18;1.70;;;1.50;;
61477;SDS011;47345;52.334;10.392;2023-07-20T04:19:48;1.70;;;1.50;;
61477;SDS011;47345;52.334;10.392;2023-07-20T04:22:19;1.40;;;1.40;;
61477;SDS011;47345;52.334;10.392;2023-07-20T04:24:51;1.90;;;1.60;;
61477;SDS011;47345;52.334;10.392;2023-07-20T04:27:21;3.60;;;1.50;;
61477;SDS011;47345;52.334;10.392;2023-07-20T04:29:52;1.90;;;1.70;;
61477;SDS011;47345;52.334;10.392;2023-07-20T04:32:23;1.50;;;1.40;;
61477;SDS011;47345;52.334;10.392;2023-07-20T04:34:54;1.70;;;1.50;;
61477;SDS011;47345;52.334;10.392;2023-07-20T04:37:24;2.20;;;1.50;;
61477;SDS011;47345;52.334;10.392;2023-07-20T04:39:55;3.20;;;1.80;;
61477;SDS011;47345;52.334;10.392;2023-07-20T04:42:26;1.60;;;1.50;;
61477;SDS011;47345;52.334;10.392;2023-07-20T04:44:57;1.70;;;1.60;;
61477;SDS011;47345;52.334;10.392;2023-07-20T04:47:28;2.00;;;1.80;;
61477;SDS011;47345;52.334;10.392;2023-07-20T04:49:59;5.50;;;1.50;;
61477;SDS011;47345;52.334;10.392;2023-07-20T04:52:30;2.10;;;1.70;;
61477;SDS011;47345;52.334;10.392;2023-07-20T04:55:10;1.80;;;1.50;;
61477;SDS011;47345;52.334;10.392;2023-07-20T04:57:42;2.80;;;1.40;;
61477;SDS011;47345;52.334;10.392;2023-07-20T05:00:14;1.60;;;1.50;;
61477;SDS011;47345;52.334;10.392;2023-07-20T05:02:45;1.50;;;1.40;;
61477;SDS011;47345;52.334;10.392;2023-07-20T05:05:17;1.40;;;1.30;;
61477;SDS011;47345;52.334;10.392;2023-07-20T05:07:47;1.50;;;1.40;;
61477;SDS011;47345;52.334;10.392;2023-07-20T05:10:18;3.10;;;1.30;;
61477;SDS011;47345;52.334;10.392;2023-07-20T05:12:49;1.80;;;1.60;;
61477;SDS011;47345;52.334;10.392;2023-07-20T05:15:20;2.50;;;1.40;;
61477;SDS011;47345;52.334;10.392;2023-07-20T05:17:51;1.60;;;1.50;;
61477;SDS011;47345;52.334;10.392;2023-07-20T05:20:21;2.10;;;1.30;;
61477;SDS011;47345;52.334;10.392;2023-07-20T05:22:52;1.90;;;1.60;;
61477;SDS011;47345;52.334;10.392;2023-07-20T05:25:23;2.70;;;1.50;;
61477;SDS011;47345;52.334;10.392;2023-07-20T05:27:57;1.20;;;1.20;;
61477;SDS011;47345;52.334;10.392;2023-07-20T05:30:28;3.00;;;1.30;;
61477;SDS011;47345;52.334;10.392;2023-07-20T05:32:59;3.30;;;1.40;;
61477;SDS011;47345;52.334;10.392;2023-07-20T05:35:30;2.00;;;1.40;;
61477;SDS011;47345;52.334;10.392;2023-07-20T05:38:01;5.60;;;1.50;;
61477;SDS011;47345;52.334;10.392;2023-07-20T05:40:33;1.50;;;1.40;;
61477;SDS011;47345;52.334;10.392;2023-07-20T05:43:04;1.60;;;1.40;;
61477;SDS011;47345;52.334;10.392;2023-07-20T05:45:35;1.50;;;1.30;;
61477;SDS011;47345;52.334;10.392;2023-07-20T05:48:07;3.50;;;1.30;;
61477;SDS011;47345;52.334;10.392;2023-07-20T05:50:41;1.70;;;1.50;;
61477;SDS011;47345;52.334;10.392;2023-07-20T05:53:12;2.40;;;1.50;;
61477;SDS011;47345;52.334;10.392;2023-07-20T05:55:43;4.70;;;1.80;;
61477;SDS011;47345;52.334;10.392;2023-07-20T05:58:20;2.40;;;1.60;;
61477;SDS011;47345;52.334;10.392;2023-07-20T06:00:53;5.60;;;1.90;;
61477;SDS011;47345;52.334;10.392;2023-07-20T06:03:24;2.10;;;1.90;;
61477;SDS011;47345;52.334;10.392;2023-07-20T06:05:59;2.80;;;2.40;;
61477;SDS011;47345;52.334;10.392;2023-07-20T06:08:30;2.20;;;1.90;;
61477;SDS011;47345;52.334;10.392;2023-07-20T06:11:01;2.70;;;2.10;;
61477;SDS011;47345;52.334;10.392;2023-07-20T06:13:32;2.50;;;2.10;;
61477;SDS011;47345;52.334;10.392;2023-07-20T06:16:03;4.20;;;2.30;;
61477;SDS011;47345;52.334;10.392;2023-07-20T06:18:34;2.30;;;2.10;;
61477;SDS011;47345;52.334;10.392;2023-07-20T06:21:05;3.50;;;2.30;;
61477;SDS011;47345;52.334;10.392;2023-07-20T06:23:35;3.30;;;2.60;;
61477;SDS011;47345;52.334;10.392;2023-07-20T06:26:07;4.00;;;2.20;;
61477;SDS011;47345;52.334;10.392;2023-07-20T06:28:38;5.00;;;2.10;;
61477;SDS011;47345;52.334;10.392;2023-07-20T06:31:09;3.10;;;2.20;;
61477;SDS011;47345;52.334;10.392;2023-07-20T06:33:40;2.60;;;2.10;;
61477;SDS011;47345;52.334;10.392;2023-07-20T06:36:11;6.10;;;2.40;;
61477;SDS011;47345;52.334;10.392;2023-07-20T06:38:42;4.90;;;2.30;;
61477;SDS011;47345;52.334;10.392;2023-07-20T06:41:32;2.60;;;2.30;;
61477;SDS011;47345;52.334;10.392;2023-07-20T06:44:06;3.00;;;2.70;;
61477;SDS011;47345;52.334;10.392;2023-07-20T06:46:37;4.00;;;2.70;;
61477;SDS011;47345;52.334;10.392;2023-07-20T06:49:07;3.10;;;2.70;;
61477;SDS011;47345;52.334;10.392;2023-07-20T06:51:41;2.90;;;2.60;;
61477;SDS011;47345;52.334;10.392;2023-07-20T06:54:12;3.50;;;2.40;;
61477;SDS011;47345;52.334;10.392;2023-07-20T06:56:43;2.70;;;2.40;;
61477;SDS011;47345;52.334;10.392;2023-07-20T06:59:34;2.50;;;2.30;;
61477;SDS011;47345;52.334;10.392;2023-07-20T07:02:08;3.30;;;2.50;;
61477;SDS011;47345;52.334;10.392;2023-07-20T07:04:41;3.30;;;2.80;;
61477;SDS011;47345;52.334;10.392;2023-07-20T07:07:13;4.20;;;2.80;;
61477;SDS011;47345;52.334;10.392;2023-07-20T07:09:54;3.10;;;2.80;;
61477;SDS011;47345;52.334;10.392;2023-07-20T07:12:24;3.50;;;2.70;;
61477;SDS011;47345;52.334;10.392;2023-07-20T07:14:55;2.60;;;2.40;;
61477;SDS011;47345;52.334;10.392;2023-07-20T07:17:26;3.50;;;2.90;;
61477;SDS011;47345;52.334;10.392;2023-07-20T07:19:57;4.50;;;3.20;;
61477;SDS011;47345;52.334;10.392;2023-07-20T07:22:28;2.90;;;2.60;;
61477;SDS011;47345;52.334;10.392;2023-07-20T07:24:59;2.50;;;2.30;;
61477;SDS011;47345;52.334;10.392;2023-07-20T07:27:31;2.70;;;2.40;;
61477;SDS011;47345;52.334;10.392;2023-07-20T07:30:01;3.50;;;2.40;;
61477;SDS011;47345;52.334;10.392;2023-07-20T07:32:33;2.30;;;2.10;;
61477;SDS011;47345;52.334;10.392;2023-07-20T07:35:05;3.20;;;2.60;;
61477;SDS011;47345;52.334;10.392;2023-07-20T07:37:37;3.40;;;2.60;;
61477;SDS011;47345;52.334;10.392;2023-07-20T07:40:24;2.70;;;2.50;;
61477;SDS011;47345;52.334;10.392;2023-07-20T07:42:55;4.30;;;3.00;;
61477;SDS011;47345;52.334;10.392;2023-07-20T07:45:26;2.70;;;2.50;;
61477;SDS011;47345;52.334;10.392;2023-07-20T07:47:57;2.80;;;2.50;;
61477;SDS011;47345;52.334;10.392;2023-07-20T07:50:28;2.60;;;2.10;;
61477;SDS011;47345;52.334;10.392;2023-07-20T07:52:59;2.50;;;2.20;;
61477;SDS011;47345;52.334;10.392;2023-07-20T07:55:30;2.00;;;1.90;;
61477;SDS011;47345;52.334;10.392;2023-07-20T07:58:01;2.10;;;1.60;;
61477;SDS011;47345;52.334;10.392;2023-07-20T08:00:32;4.00;;;1.90;;
61477;SDS011;47345;52.334;10.392;2023-07-20T08:03:03;1.70;;;1.60;;
61477;SDS011;47345;52.334;10.392;2023-07-20T08:05:35;1.80;;;1.70;;
61477;SDS011;47345;52.334;10.392;2023-07-20T08:08:05;1.90;;;1.30;;
61477;SDS011;47345;52.334;10.392;2023-07-20T08:10:37;1.50;;;1.40;;
61477;SDS011;47345;52.334;10.392;2023-07-20T08:13:08;1.40;;;1.30;;
61477;SDS011;47345;52.334;10.392;2023-07-20T08:15:39;1.10;;;1.10;;
61477;SDS011;47345;52.334;10.392;2023-07-20T08:18:17;1.50;;;1.20;;
61477;SDS011;47345;52.334;10.392;2023-07-20T08:20:49;1.10;;;0.90;;
61477;SDS011;47345;52.334;10.392;2023-07-20T08:23:20;1.40;;;0.90;;
61477;SDS011;47345;52.334;10.392;2023-07-20T08:25:51;1.40;;;1.10;;
61477;SDS011;47345;52.334;10.392;2023-07-20T08:28:22;1.10;;;1.00;;
61477;SDS011;47345;52.334;10.392;2023-07-20T08:30:54;1.30;;;1.20;;
61477;SDS011;47345;52.334;10.392;2023-07-20T08:33:26;4.00;;;1.10;;
61477;SDS011;47345;52.334;10.392;2023-07-20T08:36:01;1.20;;;1.10;;
61477;SDS011;47345;52.334;10.392;2023-07-20T08:38:34;1.30;;;0.80;;
61477;SDS011;47345;52.334;10.392;2023-07-20T08:41:05;1.30;;;1.00;;
61477;SDS011;47345;52.334;10.392;2023-07-20T08:43:37;1.70;;;1.10;;
61477;SDS011;47345;52.334;10.392;2023-07-20T08:46:12;0.90;;;0.90;;
61477;SDS011;47345;52.334;10.392;2023-07-20T08:48:43;1.70;;;0.90;;
61477;SDS011;47345;52.334;10.392;2023-07-20T08:51:15;1.10;;;1.00;;
61477;SDS011;47345;52.334;10.392;2023-07-20T08:53:48;0.80;;;0.80;;
61477;SDS011;47345;52.334;10.392;2023-07-20T08:56:21;1.60;;;0.90;;
61477;SDS011;47345;52.334;10.392;2023-07-20T08:58:54;1.80;;;1.00;;
61477;SDS011;47345;52.334;10.392;2023-07-20T09:01:26;1.40;;;1.00;;
61477;SDS011;47345;52.334;10.392;2023-07-20T09:03:58;1.50;;;0.80;;
61477;SDS011;47345;52.334;10.392;2023-07-20T09:06:28;4.90;;;1.50;;
61477;SDS011;47345;52.334;10.392;2023-07-20T09:08:59;1.70;;;1.00;;
61477;SDS011;47345;52.334;10.392;2023-07-20T09:11:31;1.50;;;1.10;;
61477;SDS011;47345;52.334;10.392;2023-07-20T09:14:05;1.70;;;1.10;;
61477;SDS011;47345;52.334;10.392;2023-07-20T09:16:48;1.10;;;1.10;;
61477;SDS011;47345;52.334;10.392;2023-07-20T09:19:21;1.40;;;1.00;;
61477;SDS011;47345;52.334;10.392;2023-07-20T09:21:51;1.10;;;1.10;;
61477;SDS011;47345;52.334;10.392;2023-07-20T09:24:22;1.30;;;1.30;;
61477;SDS011;47345;52.334;10.392;2023-07-20T09:26:53;1.70;;;1.20;;
61477;SDS011;47345;52.334;10.392;2023-07-20T09:29:25;2.00;;;1.10;;
61477;SDS011;47345;52.334;10.392;2023-07-20T09:32:00;1.30;;;1.10;;
61477;SDS011;47345;52.334;10.392;2023-07-20T09:34:32;1.10;;;0.90;;
61477;SDS011;47345;52.334;10.392;2023-07-20T09:37:07;1.40;;;1.20;;
61477;SDS011;47345;52.334;10.392;2023-07-20T09:39:43;1.30;;;1.20;;
61477;SDS011;47345;52.334;10.392;2023-07-20T09:42:17;0.90;;;0.90;;
61477;SDS011;47345;52.334;10.392;2023-07-20T09:44:52;0.70;;;0.70;;
61477;SDS011;47345;52.334;10.392;2023-07-20T09:47:22;1.10;;;1.00;;
61477;SDS011;47345;52.334;10.392;2023-07-20T09:50:05;0.70;;;0.70;;
61477;SDS011;47345;52.334;10.392;2023-07-20T09:52:41;0.80;;;0.80;;
61477;SDS011;47345;52.334;10.392;2023-07-20T09:55:15;0.80;;;0.80;;
61477;SDS011;47345;52.334;10.392;2023-07-20T09:57:48;1.00;;;0.80;;
61477;SDS011;47345;52.334;10.392;2023-07-20T10:00:21;1.00;;;1.00;;
61477;SDS011;47345;52.334;10.392;2023-07-20T10:02:55;1.60;;;1.10;;
61477;SDS011;47345;52.334;10.392;2023-07-20T10:05:27;1.10;;;0.90;;
61477;SDS011;47345;52.334;10.392;2023-07-20T10:08:03;3.30;;;1.00;;
61477;SDS011;47345;52.334;10.392;2023-07-20T10:10:41;1.10;;;0.80;;
61477;SDS011;47345;52.334;10.392;2023-07-20T10:13:14;1.60;;;1.00;;
61477;SDS011;47345;52.334;10.392;2023-07-20T10:15:51;1.00;;;1.00;;
61477;SDS011;47345;52.334;10.392;2023-07-20T10:18:28;1.20;;;1.10;;
61477;SDS011;47345;52.334;10.392;2023-07-20T10:21:01;1.00;;;1.00;;
61477;SDS011;47345;52.334;10.392;2023-07-20T10:23:37;1.00;;;1.00;;
61477;SDS011;47345;52.334;10.392;2023-07-20T10:26:09;2.40;;;1.30;;
61477;SDS011;47345;52.334;10.392;2023-07-20T10:28:40;2.40;;;1.10;;
61477;SDS011;47345;52.334;10.392;2023-07-20T10:31:12;0.80;;;0.80;;
61477;SDS011;47345;52.334;10.392;2023-07-20T10:33:44;1.20;;;1.10;;
61477;SDS011;47345;52.334;10.392;2023-07-20T10:36:15;3.90;;;1.20;;
61477;SDS011;47345;52.334;10.392;2023-07-20T10:38:55;4.70;;;1.30;;
61477;SDS011;47345;52.334;10.392;2023-07-20T10:41:28;1.00;;;1.00;;
61477;SDS011;47345;52.334;10.392;2023-07-20T10:44:03;0.90;;;0.90;;
61477;SDS011;47345;52.334;10.392;2023-07-20T10:46:41;8.50;;;1.10;;
61477;SDS011;47345;52.334;10.392;2023-07-20T10:49:14;1.20;;;1.10;;
61477;SDS011;47345;52.334;10.392;2023-07-20T10:51:48;2.90;;;1.20;;
61477;SDS011;47345;52.334;10.392;2023-07-20T10:54:35;2.00;;;1.10;;
61477;SDS011;47345;52.334;10.392;2023-07-20T10:57:28;3.10;;;1.10;;
61477;SDS011;47345;52.334;10.392;2023-07-20T11:00:09;2.50;;;1.60;;
61477;SDS011;47345;52.334;10.392;2023-07-20T11:02:47;3.80;;;1.20;;
61477;SDS011;47345;52.334;10.392;2023-07-20T11:08:14;2.80;;;1.20;;
61477;SDS011;47345;52.334;10.392;2023-07-20T11:13:58;1.20;;;1.10;;
61477;SDS011;47345;52.334;10.392;2023-07-20T11:16:37;1.20;;;1.10;;
61477;SDS011;47345;52.334;10.392;2023-07-20T11:19:16;1.10;;;1.10;;
61477;SDS011;47345;52.334;10.392;2023-07-20T11:21:51;1.10;;;1.10;;
61477;SDS011;47345;52.334;10.392;2023-07-20T11:24:31;1.40;;;1.10;;
61477;SDS011;47345;52.334;10.392;2023-07-20T11:27:02;1.10;;;1.00;;
61477;SDS011;47345;52.334;10.392;2023-07-20T11:29:34;1.80;;;1.10;;
61477;SDS011;47345;52.334;10.392;2023-07-20T11:32:07;6.20;;;1.30;;
61477;SDS011;47345;52.334;10.392;2023-07-20T11:34:40;1.10;;;0.90;;
61477;SDS011;47345;52.334;10.392;2023-07-20T11:37:17;2.00;;;1.10;;
61477;SDS011;47345;52.334;10.392;2023-07-20T11:39:48;2.50;;;1.00;;
61477;SDS011;47345;52.334;10.392;2023-07-20T11:42:23;2.40;;;1.00;;
61477;SDS011;47345;52.334;10.392;2023-07-20T11:44:57;1.10;;;1.00;;
61477;SDS011;47345;52.334;10.392;2023-07-20T11:47:33;2.30;;;1.00;;
61477;SDS011;47345;52.334;10.392;2023-07-20T11:50:10;1.30;;;1.00;;
61477;SDS011;47345;52.334;10.392;2023-07-20T11:52:41;3.00;;;1.10;;
61477;SDS011;47345;52.334;10.392;2023-07-20T11:55:13;1.70;;;1.00;;
61477;SDS011;47345;52.334;10.392;2023-07-20T12:00:45;1.50;;;1.00;;
61477;SDS011;47345;52.334;10.392;2023-07-20T12:03:16;2.90;;;0.90;;
61477;SDS011;47345;52.334;10.392;2023-07-20T12:05:49;0.80;;;0.80;;
61477;SDS011;47345;52.334;10.392;2023-07-20T12:08:28;1.80;;;1.30;;
61477;SDS011;47345;52.334;10.392;2023-07-20T12:10:59;0.80;;;0.80;;
61477;SDS011;47345;52.334;10.392;2023-07-20T12:13:40;2.00;;;0.50;;
61477;SDS011;47345;52.334;10.392;2023-07-20T12:16:14;1.20;;;0.80;;
61477;SDS011;47345;52.334;10.392;2023-07-20T12:18:45;0.90;;;0.90;;
61477;SDS011;47345;52.334;10.392;2023-07-20T12:21:16;1.10;;;1.00;;
61477;SDS011;47345;52.334;10.392;2023-07-20T12:23:49;1.60;;;1.10;;
61477;SDS011;47345;52.334;10.392;2023-07-20T12:26:21;1.60;;;1.00;;
61477;SDS011;47345;52.334;10.392;2023-07-20T12:28:53;2.20;;;0.90;;
61477;SDS011;47345;52.334;10.392;2023-07-20T12:31:24;0.80;;;0.80;;
61477;SDS011;47345;52.334;10.392;2023-07-20T12:33:56;1.90;;;1.00;;
61477;SDS011;47345;52.334;10.392;2023-07-20T12:36:27;1.00;;;0.90;;
61477;SDS011;47345;52.334;10.392;2023-07-20T12:38:58;1.10;;;0.90;;
61477;SDS011;47345;52.334;10.392;2023-07-20T12:41:29;1.00;;;1.00;;
61477;SDS011;47345;52.334;10.392;2023-07-20T12:44:00;1.10;;;0.90;;
61477;SDS011;47345;52.334;10.392;2023-07-20T12:46:30;1.90;;;1.00;;
61477;SDS011;47345;52.334;10.392;2023-07-20T12:49:03;6.00;;;1.10;;
61477;SDS011;47345;52.334;10.392;2023-07-20T12:51:33;1.20;;;0.80;;
61477;SDS011;47345;52.334;10.392;2023-07-20T12:54:04;3.10;;;1.10;;
61477;SDS011;47345;52.334;10.392;2023-07-20T12:56:35;1.10;;;1.00;;
61477;SDS011;47345;52.334;10.392;2023-07-20T12:59:09;2.20;;;0.90;;
61477;SDS011;47345;52.334;10.392;2023-07-20T13:01:40;2.80;;;1.10;;
61477;SDS011;47345;52.334;10.392;2023-07-20T13:04:12;1.10;;;1.00;;
61477;SDS011;47345;52.334;10.392;2023-07-20T13:06:43;1.30;;;1.20;;
61477;SDS011;47345;52.334;10.392;2023-07-20T13:09:14;1.60;;;1.00;;
61477;SDS011;47345;52.334;10.392;2023-07-20T13:11:44;1.20;;;1.10;;
61477;SDS011;47345;52.334;10.392;2023-07-20T13:14:15;1.10;;;1.00;;
61477;SDS011;47345;52.334;10.392;2023-07-20T13:16:47;1.20;;;1.20;;
61477;SDS011;47345;52.334;10.392;2023-07-20T13:19:17;1.40;;;1.30;;
61477;SDS011;47345;52.334;10.392;2023-07-20T13:21:48;1.20;;;1.10;;
61477;SDS011;47345;52.334;10.392;2023-07-20T13:24:19;3.40;;;1.30;;
61477;SDS011;47345;52.334;10.392;2023-07-20T13:26:50;1.80;;;1.10;;
61477;SDS011;47345;52.334;10.392;2023-07-20T13:29:21;2.10;;;1.00;;
61477;SDS011;47345;52.334;10.392;2023-07-20T13:31:53;1.30;;;1.20;;
61477;SDS011;47345;52.334;10.392;2023-07-20T13:34:23;0.90;;;0.90;;
61477;SDS011;47345;52.334;10.392;2023-07-20T13:36:59;1.20;;;1.20;;
61477;SDS011;47345;52.334;10.392;2023-07-20T13:39:30;1.20;;;1.20;;
61477;SDS011;47345;52.334;10.392;2023-07-20T13:42:01;1.50;;;1.10;;
61477;SDS011;47345;52.334;10.392;2023-07-20T13:44:33;1.90;;;1.00;;
61477;SDS011;47345;52.334;10.392;2023-07-20T13:47:05;1.80;;;1.20;;
61477;SDS011;47345;52.334;10.392;2023-07-20T13:49:39;3.20;;;1.10;;
61477;SDS011;47345;52.334;10.392;2023-07-20T13:52:15;3.20;;;1.30;;
61477;SDS011;47345;52.334;10.392;2023-07-20T13:54:49;1.30;;;1.20;;
61477;SDS011;47345;52.334;10.392;2023-07-20T13:57:22;1.20;;;1.20;;
61477;SDS011;47345;52.334;10.392;2023-07-20T13:59:54;1.20;;;1.10;;
61477;SDS011;47345;52.334;10.392;2023-07-20T14:02:27;1.40;;;1.30;;
61477;SDS011;47345;52.334;10.392;2023-07-20T14:05:01;1.30;;;1.20;;
61477;SDS011;47345;52.334;10.392;2023-07-20T14:07:35;1.30;;;1.20;;
61477;SDS011;47345;52.334;10.392;2023-07-20T14:10:08;1.90;;;1.00;;
61477;SDS011;47345;52.334;10.392;2023-07-20T14:12:42;1.10;;;1.00;;
61477;SDS011;47345;52.334;10.392;2023-07-20T14:15:13;1.40;;;1.00;;
61477;SDS011;47345;52.334;10.392;2023-07-20T14:17:45;1.10;;;1.00;;
61477;SDS011;47345;52.334;10.392;2023-07-20T14:20:16;1.30;;;1.00;;
61477;SDS011;47345;52.334;10.392;2023-07-20T14:22:49;2.20;;;1.40;;
61477;SDS011;47345;52.334;10.392;2023-07-20T14:25:20;7.40;;;1.00;;
61477;SDS011;47345;52.334;10.392;2023-07-20T14:27:51;1.20;;;1.10;;
61477;SDS011;47345;52.334;10.392;2023-07-20T14:30:22;1.00;;;0.90;;
61477;SDS011;47345;52.334;10.392;2023-07-20T14:32:54;3.20;;;1.40;;
61477;SDS011;47345;52.334;10.392;2023-07-20T14:35:25;2.20;;;2.00;;
61477;SDS011;47345;52.334;10.392;2023-07-20T14:37:56;1.70;;;1.30;;
61477;SDS011;47345;52.334;10.392;2023-07-20T14:40:27;1.50;;;1.40;;
61477;SDS011;47345;52.334;10.392;2023-07-20T14:42:58;2.90;;;1.30;;
61477;SDS011;47345;52.334;10.392;2023-07-20T14:45:30;2.90;;;1.50;;
61477;SDS011;47345;52.334;10.392;2023-07-20T14:48:01;1.80;;;1.40;;
61477;SDS011;47345;52.334;10.392;2023-07-20T14:50:31;1.80;;;1.30;;
61477;SDS011;47345;52.334;10.392;2023-07-20T14:53:02;2.00;;;1.50;;
61477;SDS011;47345;52.334;10.392;2023-07-20T14:55:33;1.30;;;1.20;;
61477;SDS011;47345;52.334;10.392;2023-07-20T14:58:04;1.70;;;1.20;;
61477;SDS011;47345;52.334;10.392;2023-07-20T15:00:35;1.50;;;1.40;;
61477;SDS011;47345;52.334;10.392;2023-07-20T15:03:06;1.30;;;1.20;;
61477;SDS011;47345;52.334;10.392;2023-07-20T15:05:38;3.50;;;1.40;;
61477;SDS011;47345;52.334;10.392;2023-07-20T15:08:10;2.00;;;1.30;;
61477;SDS011;47345;52.334;10.392;2023-07-20T15:10:41;1.80;;;1.40;;
61477;SDS011;47345;52.334;10.392;2023-07-20T15:13:14;5.10;;;1.40;;